createdAt,value
2023-01-12T00:03:23.408Z,101718.06
2023-01-12T00:08:19.978Z,101743.06
2023-01-12T00:13:16.569Z,101756.88
2023-01-12T00:18:13.727Z,101770.50
2023-01-12T00:23:11.718Z,101788.63
2023-01-12T00:28:08.225Z,101794.41
2023-01-12T00:33:04.957Z,101776.00
2023-01-12T00:38:03.150Z,101781.13
2023-01-12T00:43:17.882Z,101769.78
2023-01-12T00:48:15.005Z,101759.72
2023-01-12T00:53:12.353Z,101760.47
2023-01-12T00:58:08.899Z,101770.19
2023-01-12T01:03:05.477Z,101753.41
2023-01-12T01:08:03.681Z,101759.19
2023-01-12T01:13:00.966Z,101763.97
2023-01-12T01:17:57.510Z,101728.34
2023-01-12T01:22:54.159Z,101724.63
2023-01-12T01:27:53.758Z,101700.75
2023-01-12T01:32:51.029Z,101714.00
2023-01-12T01:37:47.620Z,101725.28
2023-01-12T01:42:44.142Z,101707.56
2023-01-12T01:47:42.708Z,101703.47
2023-01-12T01:52:42.413Z,101716.34
2023-01-12T01:57:41.930Z,101728.00
2023-01-12T02:02:39.099Z,101703.31
2023-01-12T02:07:35.895Z,101717.56
2023-01-12T02:12:51.187Z,101709.88
2023-01-12T02:17:55.946Z,101711.97
2023-01-12T02:23:10.440Z,101727.28
2023-01-12T02:28:26.520Z,101723.22
2023-01-12T02:33:27.714Z,101717.13
2023-01-12T02:38:32.780Z,101732.41
2023-01-12T02:43:30.418Z,101729.72
2023-01-12T02:48:31.467Z,101724.69
2023-01-12T02:53:30.177Z,101712.22
2023-01-12T02:58:27.213Z,101717.50
2023-01-12T03:03:24.651Z,101691.00
2023-01-12T03:08:25.328Z,101689.19
2023-01-12T03:13:23.810Z,101708.00
2023-01-12T03:18:25.479Z,101713.44
2023-01-12T03:23:26.357Z,101714.66
2023-01-12T03:28:26.539Z,101706.81
2023-01-12T03:33:27.437Z,101705.69
2023-01-12T03:38:28.470Z,101703.66
2023-01-12T03:43:28.782Z,101701.50
2023-01-12T03:48:26.464Z,101723.00
2023-01-12T03:53:23.232Z,101712.91
2023-01-12T03:58:22.383Z,101709.44
2023-01-12T04:03:18.932Z,101714.13
2023-01-12T04:08:16.265Z,101710.53
2023-01-12T04:13:14.286Z,101719.13
2023-01-12T04:18:12.479Z,101720.25
2023-01-12T04:23:09.370Z,101704.59
2023-01-12T04:28:06.449Z,101716.31
2023-01-12T04:33:07.447Z,101723.81
2023-01-12T04:38:06.162Z,101720.31
2023-01-12T04:43:07.793Z,101725.44
2023-01-12T04:48:06.144Z,101717.94
2023-01-12T04:53:03.622Z,101715.38
2023-01-12T04:58:00.934Z,101716.94
2023-01-12T05:02:58.845Z,101712.22
2023-01-12T05:08:13.731Z,101729.56
2023-01-12T05:13:11.045Z,101741.28
2023-01-12T05:18:07.636Z,101738.13
2023-01-12T05:23:04.278Z,101744.22
2023-01-12T05:28:01.056Z,101742.53
2023-01-12T05:32:58.436Z,101736.41
2023-01-12T05:37:57.903Z,101740.78
2023-01-12T05:43:12.645Z,101744.22
2023-01-12T05:48:10.680Z,101745.78
2023-01-12T05:53:07.447Z,101745.97
2023-01-12T05:58:04.141Z,101755.75
2023-01-12T06:03:03.551Z,101771.28
2023-01-12T06:08:02.311Z,101763.59
2023-01-12T06:13:17.137Z,101767.06
2023-01-12T06:18:13.865Z,101753.34
2023-01-12T06:23:17.497Z,101749.72
2023-01-12T06:28:14.473Z,101758.25
2023-01-12T06:33:12.796Z,101762.81
2023-01-12T06:38:09.506Z,101764.63
2023-01-12T06:43:06.993Z,101760.94
2023-01-12T06:48:09.936Z,101755.31
2023-01-12T06:53:06.888Z,101769.34
2023-01-12T06:58:03.706Z,101769.38
2023-01-12T07:03:01.128Z,101777.25
2023-01-12T07:07:59.203Z,101782.34
2023-01-12T07:12:59.494Z,101791.91
2023-01-12T07:17:56.619Z,101785.88
2023-01-12T07:22:57.734Z,101796.13
2023-01-12T07:27:55.056Z,101798.63
2023-01-12T07:33:15.099Z,101805.59
2023-01-12T07:38:47.287Z,101803.94
2023-01-12T07:44:10.964Z,101802.25
2023-01-12T07:49:16.352Z,101805.81
2023-01-12T07:54:16.158Z,101799.00
2023-01-12T07:59:15.063Z,101800.72
2023-01-12T08:04:22.163Z,101811.94
2023-01-12T08:09:34.197Z,101814.63
2023-01-12T08:14:53.508Z,101824.72
2023-01-12T08:19:58.832Z,101830.84
2023-01-12T08:24:59.383Z,101824.69
2023-01-12T08:30:03.341Z,101841.28
2023-01-12T08:35:03.173Z,101830.16
2023-01-12T08:40:13.747Z,101840.59
2023-01-12T08:45:15.015Z,101832.91
2023-01-12T08:50:14.413Z,101835.47
2023-01-12T08:55:22.521Z,101832.81
2023-01-12T09:00:22.856Z,101845.16
2023-01-12T09:05:19.740Z,101835.00
2023-01-12T09:10:16.788Z,101834.28
2023-01-12T09:15:14.320Z,101830.81
2023-01-12T09:20:15.380Z,101833.53
2023-01-12T09:25:15.373Z,101831.88
2023-01-12T09:30:14.280Z,101830.31
2023-01-12T09:35:11.650Z,101831.19
2023-01-12T09:40:10.446Z,101821.56
2023-01-12T09:45:35.062Z,101820.84
2023-01-12T09:50:35.150Z,101830.44
2023-01-12T09:55:36.745Z,101833.00
2023-01-12T10:00:33.507Z,101819.25
2023-01-12T10:05:40.309Z,101820.19
2023-01-12T10:10:37.405Z,101809.78
2023-01-12T10:15:39.573Z,101808.00
2023-01-12T10:20:37.537Z,101814.81
2023-01-12T10:25:37.833Z,101800.03
2023-01-12T10:30:35.677Z,101800.97
2023-01-12T10:35:32.648Z,101793.16
2023-01-12T10:40:31.248Z,101788.72
2023-01-12T10:45:29.712Z,101788.75
2023-01-12T10:50:27.806Z,101780.03
2023-01-12T10:55:30.281Z,101760.06
2023-01-12T11:00:29.245Z,101771.47
2023-01-12T11:05:27.340Z,101767.16
2023-01-12T11:10:27.194Z,101770.56
2023-01-12T11:15:25.319Z,101765.41
2023-01-12T11:20:29.008Z,101768.13
2023-01-12T11:25:31.918Z,101770.75
2023-01-12T11:30:32.892Z,101762.94
2023-01-12T11:35:34.241Z,101767.25
2023-01-12T11:40:32.448Z,101759.50
2023-01-12T11:45:34.415Z,101768.16
2023-01-12T11:50:33.450Z,101764.72
2023-01-12T11:55:37.826Z,101765.66
2023-01-12T12:00:42.730Z,101738.75
2023-01-12T12:05:45.650Z,101763.88
2023-01-12T12:10:46.503Z,101760.34
2023-01-12T12:15:50.416Z,101761.22
2023-01-12T12:21:00.120Z,101764.78
2023-01-12T12:26:03.204Z,101755.31
2023-01-12T12:31:04.189Z,101758.78
2023-01-12T12:36:06.570Z,101756.97
2023-01-12T12:41:30.206Z,101744.00
2023-01-12T12:46:38.137Z,101744.03
2023-01-12T12:51:40.209Z,101742.34
2023-01-12T12:56:37.784Z,101753.63
2023-01-12T13:01:42.952Z,101758.84
2023-01-12T13:06:48.394Z,101760.59
2023-01-12T13:11:51.417Z,101765.81
2023-01-12T13:16:52.720Z,101759.66
2023-01-12T13:21:55.846Z,101763.19
2023-01-12T13:26:53.369Z,101757.94
2023-01-12T13:31:50.635Z,101763.09
2023-01-12T13:37:00.848Z,101757.59
2023-01-12T13:42:15.750Z,101758.53
2023-01-12T13:47:16.131Z,101762.59
2023-01-12T13:52:28.310Z,101763.13
2023-01-12T13:57:26.733Z,101768.31
2023-01-12T14:02:24.024Z,101771.94
2023-01-12T14:07:29.264Z,101776.28
2023-01-12T14:12:39.734Z,101765.19
2023-01-12T14:17:53.230Z,101779.03
2023-01-12T14:23:05.483Z,101785.81
2023-01-12T14:28:02.672Z,101780.31
2023-01-12T14:32:59.504Z,101780.63
2023-01-12T14:37:58.689Z,101760.81
2023-01-12T14:43:13.774Z,101784.31
2023-01-12T14:48:23.848Z,101790.22
2023-01-12T14:53:32.490Z,101785.00
2023-01-12T14:58:29.093Z,101787.75
2023-01-12T15:03:35.178Z,101784.94
2023-01-12T15:08:36.808Z,101801.16
2023-01-12T15:13:34.289Z,101798.50
2023-01-12T15:18:49.538Z,101801.91
2023-01-12T15:24:08.988Z,101801.41
2023-01-12T15:29:08.910Z,101802.47
2023-01-12T15:34:12.893Z,101798.03
2023-01-12T15:39:12.629Z,101790.69
2023-01-12T15:44:11.424Z,101805.94
2023-01-12T15:49:09.976Z,101807.53
2023-01-12T15:54:07.884Z,101814.31
2023-01-12T15:59:05.320Z,101820.09
2023-01-12T16:04:39.824Z,101827.03
2023-01-12T16:09:18.914Z,101829.41
2023-01-12T16:14:16.287Z,101827.50
2023-01-12T16:19:20.767Z,101838.41
2023-01-12T16:24:17.395Z,101834.31
2023-01-12T16:29:15.491Z,101835.53
2023-01-12T16:34:13.358Z,101843.09
2023-01-12T16:39:11.745Z,101851.91
2023-01-12T16:44:13.170Z,101845.63
2023-01-12T16:49:10.000Z,101844.97
2023-01-12T16:54:07.324Z,101852.03
2023-01-12T16:59:03.941Z,101857.31
2023-01-12T17:04:00.721Z,101859.06
2023-01-12T17:09:00.853Z,101856.19
2023-01-12T17:13:58.688Z,101874.31
2023-01-12T17:18:55.368Z,101878.50
2023-01-12T17:23:53.712Z,101874.84
2023-01-12T17:28:52.821Z,101877.84
2023-01-12T17:33:51.495Z,101870.72
2023-01-12T17:38:48.252Z,101853.84
2023-01-12T17:43:44.988Z,101870.88
2023-01-12T17:48:44.874Z,101874.69
2023-01-12T17:53:42.140Z,101874.22
2023-01-12T17:58:40.540Z,101857.56
2023-01-12T18:03:37.339Z,101883.59
2023-01-12T18:08:33.943Z,101864.31
2023-01-12T18:13:31.220Z,101883.56
2023-01-12T18:18:28.125Z,101880.84
2023-01-12T18:23:24.730Z,101878.97
2023-01-12T18:28:21.496Z,101881.72
2023-01-12T18:33:19.887Z,101875.16
2023-01-12T18:38:16.707Z,101883.97
2023-01-12T18:43:13.453Z,101881.41
2023-01-12T18:48:23.757Z,101884.22
2023-01-12T18:53:24.425Z,101879.00
2023-01-12T18:58:22.057Z,101881.00
2023-01-12T19:03:18.707Z,101889.91
2023-01-12T19:08:35.604Z,101890.06
2023-01-12T19:13:51.155Z,101892.25
2023-01-12T19:18:47.875Z,101894.78
2023-01-12T19:24:02.772Z,101900.03
2023-01-12T19:29:00.035Z,101899.28
2023-01-12T19:33:57.106Z,101892.72
2023-01-12T19:38:54.213Z,101895.06
2023-01-12T19:43:50.867Z,101901.03
2023-01-12T19:48:48.192Z,101908.88
2023-01-12T19:53:46.917Z,101900.13
2023-01-12T19:58:45.880Z,101886.94
2023-01-12T20:03:48.407Z,101906.66
2023-01-12T20:08:53.906Z,101899.44
2023-01-12T20:13:50.684Z,101906.28
2023-01-12T20:18:48.153Z,101902.81
2023-01-12T20:23:45.476Z,101902.81
2023-01-12T20:28:42.090Z,101904.47
2023-01-12T20:33:41.650Z,101913.84
2023-01-12T20:38:40.641Z,101915.25
2023-01-12T20:43:37.999Z,101913.19
2023-01-12T20:48:34.822Z,101915.44
2023-01-12T20:53:31.516Z,101910.31
2023-01-12T20:58:28.315Z,101917.19
2023-01-12T21:03:25.606Z,101919.72
2023-01-12T21:08:22.240Z,101917.47
2023-01-12T21:13:19.468Z,101918.19
2023-01-12T21:18:16.419Z,101898.56
2023-01-12T21:23:13.703Z,101910.78
2023-01-12T21:28:10.584Z,101913.69
2023-01-12T21:33:07.390Z,101914.00
2023-01-12T21:38:04.249Z,101918.31
2023-01-12T21:43:12.746Z,101912.59
2023-01-12T21:48:10.218Z,101906.66
2023-01-12T21:53:07.084Z,101913.53
2023-01-12T21:58:04.422Z,101910.66
2023-01-12T22:03:01.031Z,101907.28
2023-01-12T22:07:57.551Z,101908.16
2023-01-12T22:12:56.290Z,101888.19
2023-01-12T22:17:53.600Z,101905.66
2023-01-12T22:22:50.247Z,101898.16
2023-01-12T22:27:47.004Z,101890.91
2023-01-12T22:32:44.142Z,101883.06
2023-01-12T22:37:41.619Z,101881.97
2023-01-12T22:42:56.499Z,101874.44
2023-01-12T22:47:53.275Z,101874.41
2023-01-12T22:52:52.267Z,101878.03
2023-01-12T22:57:48.988Z,101884.25
2023-01-12T23:03:01.591Z,101878.34
2023-01-12T23:07:59.518Z,101875.78
2023-01-12T23:13:14.115Z,101868.81
2023-01-12T23:18:11.255Z,101866.97
2023-01-12T23:23:09.193Z,101867.84
2023-01-12T23:28:08.532Z,101862.06
2023-01-12T23:33:05.926Z,101859.06
2023-01-12T23:38:02.892Z,101853.19
2023-01-12T23:43:00.922Z,101862.50
2023-01-12T23:48:00.462Z,101862.13
2023-01-12T23:52:57.151Z,101851.56
2023-01-12T23:57:53.712Z,101859.09
